sensor_id;sensor_type;location;lat;lon;timestamp;P1;durP1;ratioP1;P2;durP2;ratioP2
2305;SDS011;1161;51.922;8.896;2022-12-07T00:02:06;40.83;;;21.30;;
2305;SDS011;1161;51.922;8.896;2022-12-07T00:04:33;42.10;;;19.40;;
2305;SDS011;1161;51.922;8.896;2022-12-07T00:07:00;42.27;;;18.07;;
2305;SDS011;1161;51.922;8.896;2022-12-07T00:09:27;37.03;;;19.80;;
2305;SDS011;1161;51.922;8.896;2022-12-07T00:11:55;56.23;;;22.63;;
2305;SDS011;1161;51.922;8.896;2022-12-07T00:14:22;36.03;;;19.30;;
2305;SDS011;1161;51.922;8.896;2022-12-07T00:16:49;37.03;;;20.27;;
2305;SDS011;1161;51.922;8.896;2022-12-07T00:19:16;56.27;;;26.40;;
2305;SDS011;1161;51.922;8.896;2022-12-07T00:21:43;50.67;;;24.03;;
2305;SDS011;1161;51.922;8.896;2022-12-07T00:24:09;60.60;;;25.20;;
2305;SDS011;1161;51.922;8.896;2022-12-07T00:26:38;65.80;;;27.30;;
2305;SDS011;1161;51.922;8.896;2022-12-07T00:29:07;58.20;;;22.10;;
2305;SDS011;1161;51.922;8.896;2022-12-07T00:31:38;55.80;;;27.70;;
2305;SDS011;1161;51.922;8.896;2022-12-07T00:34:05;63.07;;;28.00;;
2305;SDS011;1161;51.922;8.896;2022-12-07T00:36:32;63.80;;;29.60;;
2305;SDS011;1161;51.922;8.896;2022-12-07T00:38:59;53.40;;;28.70;;
2305;SDS011;1161;51.922;8.896;2022-12-07T00:41:27;73.43;;;30.93;;
2305;SDS011;1161;51.922;8.896;2022-12-07T00:43:55;69.80;;;28.83;;
2305;SDS011;1161;51.922;8.896;2022-12-07T00:46:24;58.83;;;26.37;;
2305;SDS011;1161;51.922;8.896;2022-12-07T00:48:52;68.37;;;29.27;;
2305;SDS011;1161;51.922;8.896;2022-12-07T00:51:20;52.50;;;29.13;;
2305;SDS011;1161;51.922;8.896;2022-12-07T00:53:47;71.20;;;28.90;;
2305;SDS011;1161;51.922;8.896;2022-12-07T00:56:15;81.97;;;28.73;;
2305;SDS011;1161;51.922;8.896;2022-12-07T00:58:43;68.17;;;31.30;;
2305;SDS011;1161;51.922;8.896;2022-12-07T01:01:10;66.33;;;29.27;;
2305;SDS011;1161;51.922;8.896;2022-12-07T01:03:38;86.77;;;31.43;;
2305;SDS011;1161;51.922;8.896;2022-12-07T01:06:05;88.40;;;33.30;;
2305;SDS011;1161;51.922;8.896;2022-12-07T01:08:32;68.10;;;30.10;;
2305;SDS011;1161;51.922;8.896;2022-12-07T01:11:00;69.77;;;32.67;;
2305;SDS011;1161;51.922;8.896;2022-12-07T01:13:27;80.33;;;31.53;;
2305;SDS011;1161;51.922;8.896;2022-12-07T01:15:56;80.27;;;33.70;;
2305;SDS011;1161;51.922;8.896;2022-12-07T01:18:23;84.17;;;33.70;;
2305;SDS011;1161;51.922;8.896;2022-12-07T01:20:58;82.43;;;33.37;;
2305;SDS011;1161;51.922;8.896;2022-12-07T01:23:26;79.90;;;30.43;;
2305;SDS011;1161;51.922;8.896;2022-12-07T01:25:54;70.73;;;29.50;;
2305;SDS011;1161;51.922;8.896;2022-12-07T01:28:21;76.03;;;30.90;;
2305;SDS011;1161;51.922;8.896;2022-12-07T01:30:54;76.60;;;31.93;;
2305;SDS011;1161;51.922;8.896;2022-12-07T01:33:22;62.93;;;27.10;;
2305;SDS011;1161;51.922;8.896;2022-12-07T01:35:48;76.07;;;32.97;;
2305;SDS011;1161;51.922;8.896;2022-12-07T01:38:18;61.80;;;26.30;;
2305;SDS011;1161;51.922;8.896;2022-12-07T01:40:44;65.80;;;27.70;;
2305;SDS011;1161;51.922;8.896;2022-12-07T01:43:14;72.47;;;25.63;;
2305;SDS011;1161;51.922;8.896;2022-12-07T01:45:43;56.50;;;25.70;;
2305;SDS011;1161;51.922;8.896;2022-12-07T01:48:11;56.30;;;22.47;;
2305;SDS011;1161;51.922;8.896;2022-12-07T01:50:40;62.63;;;26.10;;
2305;SDS011;1161;51.922;8.896;2022-12-07T01:53:08;55.40;;;25.20;;
2305;SDS011;1161;51.922;8.896;2022-12-07T01:55:39;49.20;;;22.20;;
2305;SDS011;1161;51.922;8.896;2022-12-07T01:58:07;61.87;;;25.83;;
2305;SDS011;1161;51.922;8.896;2022-12-07T02:00:34;45.10;;;21.93;;
2305;SDS011;1161;51.922;8.896;2022-12-07T02:03:03;59.03;;;24.77;;
2305;SDS011;1161;51.922;8.896;2022-12-07T02:05:31;43.73;;;21.33;;
2305;SDS011;1161;51.922;8.896;2022-12-07T02:07:59;49.57;;;22.63;;
2305;SDS011;1161;51.922;8.896;2022-12-07T02:10:27;40.40;;;20.07;;
2305;SDS011;1161;51.922;8.896;2022-12-07T02:12:58;45.57;;;19.33;;
2305;SDS011;1161;51.922;8.896;2022-12-07T02:15:27;54.07;;;25.03;;
2305;SDS011;1161;51.922;8.896;2022-12-07T02:17:57;62.70;;;24.63;;
2305;SDS011;1161;51.922;8.896;2022-12-07T02:20:29;53.53;;;24.60;;
2305;SDS011;1161;51.922;8.896;2022-12-07T02:25:53;59.03;;;25.30;;
2305;SDS011;1161;51.922;8.896;2022-12-07T02:28:28;55.03;;;23.73;;
2305;SDS011;1161;51.922;8.896;2022-12-07T02:31:01;67.20;;;24.57;;
2305;SDS011;1161;51.922;8.896;2022-12-07T02:33:32;49.50;;;21.70;;
2305;SDS011;1161;51.922;8.896;2022-12-07T02:36:04;53.97;;;22.33;;
2305;SDS011;1161;51.922;8.896;2022-12-07T02:38:35;48.90;;;21.33;;
2305;SDS011;1161;51.922;8.896;2022-12-07T02:41:05;46.37;;;18.27;;
2305;SDS011;1161;51.922;8.896;2022-12-07T02:43:37;43.70;;;20.13;;
2305;SDS011;1161;51.922;8.896;2022-12-07T02:46:08;50.23;;;22.70;;
2305;SDS011;1161;51.922;8.896;2022-12-07T02:48:37;38.07;;;18.93;;
2305;SDS011;1161;51.922;8.896;2022-12-07T02:51:05;50.83;;;20.43;;
2305;SDS011;1161;51.922;8.896;2022-12-07T02:53:32;53.93;;;17.53;;
2305;SDS011;1161;51.922;8.896;2022-12-07T02:56:01;45.00;;;18.27;;
2305;SDS011;1161;51.922;8.896;2022-12-07T02:58:35;49.47;;;17.43;;
2305;SDS011;1161;51.922;8.896;2022-12-07T03:01:11;41.77;;;19.20;;
2305;SDS011;1161;51.922;8.896;2022-12-07T03:03:42;39.27;;;17.67;;
2305;SDS011;1161;51.922;8.896;2022-12-07T03:06:15;37.10;;;16.27;;
2305;SDS011;1161;51.922;8.896;2022-12-07T03:08:48;31.90;;;14.50;;
2305;SDS011;1161;51.922;8.896;2022-12-07T03:11:20;45.47;;;18.63;;
2305;SDS011;1161;51.922;8.896;2022-12-07T03:13:53;32.33;;;15.03;;
2305;SDS011;1161;51.922;8.896;2022-12-07T03:16:26;42.23;;;16.53;;
2305;SDS011;1161;51.922;8.896;2022-12-07T03:18:55;32.70;;;15.83;;
2305;SDS011;1161;51.922;8.896;2022-12-07T03:21:23;40.73;;;16.07;;
2305;SDS011;1161;51.922;8.896;2022-12-07T03:23:52;32.53;;;15.23;;
2305;SDS011;1161;51.922;8.896;2022-12-07T03:26:21;40.53;;;15.43;;
2305;SDS011;1161;51.922;8.896;2022-12-07T03:28:51;39.27;;;15.90;;
2305;SDS011;1161;51.922;8.896;2022-12-07T03:31:20;20.90;;;12.70;;
2305;SDS011;1161;51.922;8.896;2022-12-07T03:33:52;30.33;;;13.67;;
2305;SDS011;1161;51.922;8.896;2022-12-07T03:36:23;26.30;;;13.40;;
2305;SDS011;1161;51.922;8.896;2022-12-07T03:38:53;34.90;;;12.00;;
2305;SDS011;1161;51.922;8.896;2022-12-07T03:41:25;22.07;;;12.87;;
2305;SDS011;1161;51.922;8.896;2022-12-07T03:43:53;30.20;;;12.97;;
2305;SDS011;1161;51.922;8.896;2022-12-07T03:46:24;24.80;;;11.93;;
2305;SDS011;1161;51.922;8.896;2022-12-07T03:48:59;26.37;;;11.53;;
2305;SDS011;1161;51.922;8.896;2022-12-07T03:51:28;35.10;;;12.57;;
2305;SDS011;1161;51.922;8.896;2022-12-07T03:54:00;24.87;;;11.10;;
2305;SDS011;1161;51.922;8.896;2022-12-07T03:56:32;14.30;;;9.53;;
2305;SDS011;1161;51.922;8.896;2022-12-07T03:58:59;22.80;;;10.10;;
2305;SDS011;1161;51.922;8.896;2022-12-07T04:01:28;28.97;;;13.27;;
2305;SDS011;1161;51.922;8.896;2022-12-07T04:03:55;17.53;;;9.17;;
2305;SDS011;1161;51.922;8.896;2022-12-07T04:06:32;20.00;;;9.43;;
2305;SDS011;1161;51.922;8.896;2022-12-07T04:09:00;31.83;;;10.50;;
2305;SDS011;1161;51.922;8.896;2022-12-07T04:11:33;23.23;;;10.13;;
2305;SDS011;1161;51.922;8.896;2022-12-07T04:14:01;28.10;;;12.27;;
2305;SDS011;1161;51.922;8.896;2022-12-07T04:16:47;24.40;;;10.13;;
2305;SDS011;1161;51.922;8.896;2022-12-07T04:19:15;20.43;;;9.13;;
2305;SDS011;1161;51.922;8.896;2022-12-07T04:21:44;26.73;;;10.40;;
2305;SDS011;1161;51.922;8.896;2022-12-07T04:24:12;16.40;;;9.90;;
2305;SDS011;1161;51.922;8.896;2022-12-07T04:26:40;25.20;;;10.27;;
2305;SDS011;1161;51.922;8.896;2022-12-07T04:29:07;17.13;;;11.63;;
2305;SDS011;1161;51.922;8.896;2022-12-07T04:31:34;21.47;;;9.83;;
2305;SDS011;1161;51.922;8.896;2022-12-07T04:34:02;23.13;;;9.97;;
2305;SDS011;1161;51.922;8.896;2022-12-07T04:36:29;23.63;;;10.53;;
2305;SDS011;1161;51.922;8.896;2022-12-07T04:38:59;16.30;;;10.00;;
2305;SDS011;1161;51.922;8.896;2022-12-07T04:41:26;21.07;;;10.60;;
2305;SDS011;1161;51.922;8.896;2022-12-07T04:43:54;33.43;;;9.73;;
2305;SDS011;1161;51.922;8.896;2022-12-07T04:46:23;21.50;;;8.67;;
2305;SDS011;1161;51.922;8.896;2022-12-07T04:48:51;21.30;;;10.27;;
2305;SDS011;1161;51.922;8.896;2022-12-07T04:51:20;17.83;;;8.63;;
2305;SDS011;1161;51.922;8.896;2022-12-07T04:53:49;15.70;;;9.17;;
2305;SDS011;1161;51.922;8.896;2022-12-07T04:56:18;16.43;;;8.33;;
2305;SDS011;1161;51.922;8.896;2022-12-07T04:58:47;16.20;;;8.20;;
2305;SDS011;1161;51.922;8.896;2022-12-07T05:01:14;21.73;;;9.23;;
2305;SDS011;1161;51.922;8.896;2022-12-07T05:03:43;22.93;;;8.60;;
2305;SDS011;1161;51.922;8.896;2022-12-07T05:06:10;15.10;;;7.07;;
2305;SDS011;1161;51.922;8.896;2022-12-07T05:08:38;15.70;;;7.97;;
2305;SDS011;1161;51.922;8.896;2022-12-07T05:11:06;13.40;;;7.00;;
2305;SDS011;1161;51.922;8.896;2022-12-07T05:13:35;22.67;;;9.13;;
2305;SDS011;1161;51.922;8.896;2022-12-07T05:16:04;24.20;;;8.60;;
2305;SDS011;1161;51.922;8.896;2022-12-07T05:18:31;24.97;;;8.90;;
2305;SDS011;1161;51.922;8.896;2022-12-07T05:20:59;25.97;;;10.33;;
2305;SDS011;1161;51.922;8.896;2022-12-07T05:23:28;13.80;;;7.90;;
2305;SDS011;1161;51.922;8.896;2022-12-07T05:25:57;13.73;;;8.20;;
2305;SDS011;1161;51.922;8.896;2022-12-07T05:28:25;14.57;;;7.93;;
2305;SDS011;1161;51.922;8.896;2022-12-07T05:30:53;22.80;;;8.60;;
2305;SDS011;1161;51.922;8.896;2022-12-07T05:33:20;15.57;;;7.60;;
2305;SDS011;1161;51.922;8.896;2022-12-07T05:35:49;31.47;;;8.53;;
2305;SDS011;1161;51.922;8.896;2022-12-07T05:38:16;16.80;;;8.70;;
2305;SDS011;1161;51.922;8.896;2022-12-07T05:40:45;13.67;;;7.77;;
2305;SDS011;1161;51.922;8.896;2022-12-07T05:43:12;14.93;;;7.20;;
2305;SDS011;1161;51.922;8.896;2022-12-07T05:45:42;20.50;;;7.70;;
2305;SDS011;1161;51.922;8.896;2022-12-07T05:48:10;19.03;;;8.77;;
2305;SDS011;1161;51.922;8.896;2022-12-07T05:50:37;18.07;;;7.53;;
2305;SDS011;1161;51.922;8.896;2022-12-07T05:53:04;21.60;;;8.13;;
2305;SDS011;1161;51.922;8.896;2022-12-07T05:55:33;19.50;;;9.47;;
2305;SDS011;1161;51.922;8.896;2022-12-07T05:58:00;15.23;;;9.40;;
2305;SDS011;1161;51.922;8.896;2022-12-07T06:00:44;15.73;;;7.53;;
2305;SDS011;1161;51.922;8.896;2022-12-07T06:03:13;31.17;;;9.10;;
2305;SDS011;1161;51.922;8.896;2022-12-07T06:05:41;26.90;;;8.73;;
2305;SDS011;1161;51.922;8.896;2022-12-07T06:08:12;18.93;;;8.93;;
2305;SDS011;1161;51.922;8.896;2022-12-07T06:10:42;22.73;;;8.80;;
2305;SDS011;1161;51.922;8.896;2022-12-07T06:13:09;14.67;;;7.87;;
2305;SDS011;1161;51.922;8.896;2022-12-07T06:15:37;22.10;;;10.77;;
2305;SDS011;1161;51.922;8.896;2022-12-07T06:18:04;14.23;;;7.57;;
2305;SDS011;1161;51.922;8.896;2022-12-07T06:20:33;14.30;;;9.13;;
2305;SDS011;1161;51.922;8.896;2022-12-07T06:23:01;18.00;;;7.50;;
2305;SDS011;1161;51.922;8.896;2022-12-07T06:25:28;30.30;;;10.47;;
2305;SDS011;1161;51.922;8.896;2022-12-07T06:27:59;22.43;;;8.37;;
2305;SDS011;1161;51.922;8.896;2022-12-07T06:30:27;22.20;;;9.27;;
2305;SDS011;1161;51.922;8.896;2022-12-07T06:32:54;16.63;;;8.67;;
2305;SDS011;1161;51.922;8.896;2022-12-07T06:35:23;20.70;;;9.07;;
2305;SDS011;1161;51.922;8.896;2022-12-07T06:37:51;29.53;;;9.93;;
2305;SDS011;1161;51.922;8.896;2022-12-07T06:40:20;20.47;;;10.30;;
2305;SDS011;1161;51.922;8.896;2022-12-07T06:42:47;18.53;;;9.20;;
2305;SDS011;1161;51.922;8.896;2022-12-07T06:45:16;16.10;;;8.70;;
2305;SDS011;1161;51.922;8.896;2022-12-07T06:47:43;13.50;;;9.20;;
2305;SDS011;1161;51.922;8.896;2022-12-07T06:50:10;18.40;;;10.63;;
2305;SDS011;1161;51.922;8.896;2022-12-07T06:52:38;16.60;;;9.87;;
2305;SDS011;1161;51.922;8.896;2022-12-07T06:55:07;18.43;;;10.07;;
2305;SDS011;1161;51.922;8.896;2022-12-07T06:57:34;23.13;;;8.63;;
2305;SDS011;1161;51.922;8.896;2022-12-07T07:00:02;16.33;;;9.10;;
2305;SDS011;1161;51.922;8.896;2022-12-07T07:02:30;19.37;;;9.87;;
2305;SDS011;1161;51.922;8.896;2022-12-07T07:04:57;22.20;;;9.07;;
2305;SDS011;1161;51.922;8.896;2022-12-07T07:07:25;17.87;;;8.30;;
2305;SDS011;1161;51.922;8.896;2022-12-07T07:09:54;19.63;;;9.00;;
2305;SDS011;1161;51.922;8.896;2022-12-07T07:12:24;19.10;;;8.47;;
2305;SDS011;1161;51.922;8.896;2022-12-07T07:14:52;15.90;;;8.10;;
2305;SDS011;1161;51.922;8.896;2022-12-07T07:17:23;16.73;;;8.50;;
2305;SDS011;1161;51.922;8.896;2022-12-07T07:19:49;26.23;;;10.80;;
2305;SDS011;1161;51.922;8.896;2022-12-07T07:22:16;23.90;;;9.83;;
2305;SDS011;1161;51.922;8.896;2022-12-07T07:24:43;26.60;;;9.50;;
2305;SDS011;1161;51.922;8.896;2022-12-07T07:27:12;18.93;;;9.00;;
2305;SDS011;1161;51.922;8.896;2022-12-07T07:29:41;26.77;;;8.73;;
2305;SDS011;1161;51.922;8.896;2022-12-07T07:32:09;15.33;;;7.80;;
2305;SDS011;1161;51.922;8.896;2022-12-07T07:34:39;24.23;;;10.20;;
2305;SDS011;1161;51.922;8.896;2022-12-07T07:37:05;20.77;;;8.07;;
2305;SDS011;1161;51.922;8.896;2022-12-07T07:39:32;20.83;;;7.73;;
2305;SDS011;1161;51.922;8.896;2022-12-07T07:41:59;17.20;;;8.10;;
2305;SDS011;1161;51.922;8.896;2022-12-07T07:44:26;28.43;;;7.43;;
2305;SDS011;1161;51.922;8.896;2022-12-07T07:46:55;13.00;;;8.20;;
2305;SDS011;1161;51.922;8.896;2022-12-07T07:49:22;13.03;;;6.87;;
2305;SDS011;1161;51.922;8.896;2022-12-07T07:51:48;22.77;;;8.50;;
2305;SDS011;1161;51.922;8.896;2022-12-07T07:54:15;16.43;;;9.40;;
2305;SDS011;1161;51.922;8.896;2022-12-07T07:56:42;18.63;;;7.67;;
2305;SDS011;1161;51.922;8.896;2022-12-07T07:59:08;13.10;;;9.40;;
2305;SDS011;1161;51.922;8.896;2022-12-07T08:01:35;12.13;;;7.90;;
2305;SDS011;1161;51.922;8.896;2022-12-07T08:04:03;24.67;;;8.50;;
2305;SDS011;1161;51.922;8.896;2022-12-07T08:06:30;12.30;;;6.73;;
2305;SDS011;1161;51.922;8.896;2022-12-07T08:08:57;15.30;;;5.90;;
2305;SDS011;1161;51.922;8.896;2022-12-07T08:11:24;12.30;;;8.33;;
2305;SDS011;1161;51.922;8.896;2022-12-07T08:13:51;24.37;;;7.97;;
2305;SDS011;1161;51.922;8.896;2022-12-07T08:16:18;12.83;;;8.07;;
2305;SDS011;1161;51.922;8.896;2022-12-07T08:18:45;19.17;;;7.67;;
2305;SDS011;1161;51.922;8.896;2022-12-07T08:21:13;26.20;;;11.77;;
2305;SDS011;1161;51.922;8.896;2022-12-07T08:23:41;10.30;;;7.50;;
2305;SDS011;1161;51.922;8.896;2022-12-07T08:26:08;14.43;;;8.20;;
2305;SDS011;1161;51.922;8.896;2022-12-07T08:28:37;13.60;;;6.37;;
2305;SDS011;1161;51.922;8.896;2022-12-07T08:31:06;17.00;;;7.90;;
2305;SDS011;1161;51.922;8.896;2022-12-07T08:33:34;15.10;;;7.70;;
2305;SDS011;1161;51.922;8.896;2022-12-07T08:36:01;16.23;;;6.00;;
2305;SDS011;1161;51.922;8.896;2022-12-07T08:38:30;12.80;;;7.23;;
2305;SDS011;1161;51.922;8.896;2022-12-07T08:40:57;15.60;;;6.17;;
2305;SDS011;1161;51.922;8.896;2022-12-07T08:43:24;11.83;;;6.53;;
2305;SDS011;1161;51.922;8.896;2022-12-07T08:45:53;17.20;;;6.03;;
2305;SDS011;1161;51.922;8.896;2022-12-07T08:48:27;12.03;;;6.70;;
2305;SDS011;1161;51.922;8.896;2022-12-07T08:50:54;21.40;;;8.67;;
2305;SDS011;1161;51.922;8.896;2022-12-07T08:53:21;14.67;;;8.07;;
2305;SDS011;1161;51.922;8.896;2022-12-07T08:55:50;20.47;;;8.00;;
2305;SDS011;1161;51.922;8.896;2022-12-07T08:58:17;18.47;;;9.50;;
2305;SDS011;1161;51.922;8.896;2022-12-07T09:00:44;15.67;;;7.50;;
2305;SDS011;1161;51.922;8.896;2022-12-07T09:03:12;15.23;;;6.83;;
2305;SDS011;1161;51.922;8.896;2022-12-07T09:05:39;31.97;;;6.70;;
2305;SDS011;1161;51.922;8.896;2022-12-07T09:08:06;13.70;;;8.30;;
2305;SDS011;1161;51.922;8.896;2022-12-07T09:10:33;11.83;;;6.20;;
2305;SDS011;1161;51.922;8.896;2022-12-07T09:13:01;11.40;;;6.97;;
2305;SDS011;1161;51.922;8.896;2022-12-07T09:15:28;17.50;;;5.60;;
2305;SDS011;1161;51.922;8.896;2022-12-07T09:17:56;11.70;;;6.10;;
2305;SDS011;1161;51.922;8.896;2022-12-07T09:20:23;11.40;;;7.10;;
2305;SDS011;1161;51.922;8.896;2022-12-07T09:22:50;11.53;;;6.87;;
2305;SDS011;1161;51.922;8.896;2022-12-07T09:25:17;17.67;;;7.33;;
2305;SDS011;1161;51.922;8.896;2022-12-07T09:27:43;19.00;;;7.20;;
2305;SDS011;1161;51.922;8.896;2022-12-07T09:30:12;17.60;;;7.77;;
2305;SDS011;1161;51.922;8.896;2022-12-07T09:32:39;16.90;;;9.00;;
2305;SDS011;1161;51.922;8.896;2022-12-07T09:35:06;20.37;;;8.73;;
2305;SDS011;1161;51.922;8.896;2022-12-07T09:37:32;13.20;;;6.73;;
2305;SDS011;1161;51.922;8.896;2022-12-07T09:40:01;11.30;;;6.60;;
2305;SDS011;1161;51.922;8.896;2022-12-07T09:42:29;18.17;;;7.30;;
2305;SDS011;1161;51.922;8.896;2022-12-07T09:44:59;10.23;;;7.73;;
2305;SDS011;1161;51.922;8.896;2022-12-07T09:47:28;13.20;;;7.27;;
2305;SDS011;1161;51.922;8.896;2022-12-07T09:49:55;18.30;;;8.83;;
2305;SDS011;1161;51.922;8.896;2022-12-07T09:52:27;19.73;;;8.30;;
2305;SDS011;1161;51.922;8.896;2022-12-07T09:54:55;21.10;;;8.00;;
2305;SDS011;1161;51.922;8.896;2022-12-07T09:57:25;10.37;;;7.00;;
2305;SDS011;1161;51.922;8.896;2022-12-07T09:59:54;13.63;;;6.37;;
2305;SDS011;1161;51.922;8.896;2022-12-07T10:02:32;14.73;;;7.27;;
2305;SDS011;1161;51.922;8.896;2022-12-07T10:05:03;44.77;;;16.23;;
2305;SDS011;1161;51.922;8.896;2022-12-07T10:07:31;15.67;;;5.23;;
2305;SDS011;1161;51.922;8.896;2022-12-07T10:09:57;21.30;;;7.03;;
2305;SDS011;1161;51.922;8.896;2022-12-07T10:12:24;11.00;;;5.40;;
2305;SDS011;1161;51.922;8.896;2022-12-07T10:14:54;15.67;;;5.50;;
2305;SDS011;1161;51.922;8.896;2022-12-07T10:17:32;13.20;;;5.83;;
2305;SDS011;1161;51.922;8.896;2022-12-07T10:20:17;12.67;;;6.13;;
2305;SDS011;1161;51.922;8.896;2022-12-07T10:22:56;7.73;;;5.83;;
2305;SDS011;1161;51.922;8.896;2022-12-07T10:25:29;15.77;;;7.80;;
2305;SDS011;1161;51.922;8.896;2022-12-07T10:27:58;24.13;;;14.10;;
2305;SDS011;1161;51.922;8.896;2022-12-07T10:30:26;10.07;;;6.30;;
2305;SDS011;1161;51.922;8.896;2022-12-07T10:32:54;18.50;;;9.13;;
2305;SDS011;1161;51.922;8.896;2022-12-07T10:35:23;15.13;;;7.50;;
2305;SDS011;1161;51.922;8.896;2022-12-07T10:37:51;27.60;;;13.57;;
2305;SDS011;1161;51.922;8.896;2022-12-07T10:40:26;14.47;;;6.57;;
2305;SDS011;1161;51.922;8.896;2022-12-07T10:43:01;8.40;;;5.37;;
2305;SDS011;1161;51.922;8.896;2022-12-07T10:45:29;19.33;;;5.70;;
2305;SDS011;1161;51.922;8.896;2022-12-07T10:47:59;20.47;;;6.70;;
2305;SDS011;1161;51.922;8.896;2022-12-07T10:53:29;10.33;;;6.70;;
2305;SDS011;1161;51.922;8.896;2022-12-07T10:58:59;10.67;;;5.60;;
2305;SDS011;1161;51.922;8.896;2022-12-07T11:01:31;10.13;;;5.10;;
2305;SDS011;1161;51.922;8.896;2022-12-07T11:04:06;8.13;;;4.70;;
2305;SDS011;1161;51.922;8.896;2022-12-07T11:06:39;16.00;;;6.30;;
2305;SDS011;1161;51.922;8.896;2022-12-07T11:09:23;11.20;;;5.60;;
2305;SDS011;1161;51.922;8.896;2022-12-07T11:11:57;7.50;;;5.60;;
2305;SDS011;1161;51.922;8.896;2022-12-07T11:14:28;10.83;;;5.07;;
2305;SDS011;1161;51.922;8.896;2022-12-07T11:16:59;17.97;;;5.37;;
2305;SDS011;1161;51.922;8.896;2022-12-07T11:19:39;17.23;;;6.40;;
2305;SDS011;1161;51.922;8.896;2022-12-07T11:22:17;16.77;;;4.67;;
2305;SDS011;1161;51.922;8.896;2022-12-07T11:24:48;9.83;;;5.17;;
2305;SDS011;1161;51.922;8.896;2022-12-07T11:27:19;14.20;;;5.67;;
2305;SDS011;1161;51.922;8.896;2022-12-07T11:29:53;13.20;;;5.10;;
2305;SDS011;1161;51.922;8.896;2022-12-07T11:32:30;13.37;;;5.97;;
2305;SDS011;1161;51.922;8.896;2022-12-07T11:35:10;7.63;;;5.03;;
2305;SDS011;1161;51.922;8.896;2022-12-07T11:37:38;9.97;;;4.80;;
2305;SDS011;1161;51.922;8.896;2022-12-07T11:40:12;13.83;;;5.90;;
2305;SDS011;1161;51.922;8.896;2022-12-07T11:42:44;20.90;;;6.60;;
2305;SDS011;1161;51.922;8.896;2022-12-07T11:45:13;13.13;;;5.53;;
2305;SDS011;1161;51.922;8.896;2022-12-07T11:47:44;6.53;;;5.03;;
2305;SDS011;1161;51.922;8.896;2022-12-07T11:50:17;12.63;;;5.10;;
2305;SDS011;1161;51.922;8.896;2022-12-07T11:52:51;12.63;;;5.17;;
2305;SDS011;1161;51.922;8.896;2022-12-07T11:55:21;18.67;;;6.57;;
2305;SDS011;1161;51.922;8.896;2022-12-07T11:57:51;12.60;;;5.97;;
2305;SDS011;1161;51.922;8.896;2022-12-07T12:00:21;15.33;;;5.07;;
2305;SDS011;1161;51.922;8.896;2022-12-07T12:02:49;9.97;;;5.90;;
2305;SDS011;1161;51.922;8.896;2022-12-07T12:05:20;8.43;;;4.93;;
2305;SDS011;1161;51.922;8.896;2022-12-07T12:07:49;10.07;;;6.57;;
2305;SDS011;1161;51.922;8.896;2022-12-07T12:10:20;9.27;;;6.00;;
2305;SDS011;1161;51.922;8.896;2022-12-07T12:12:55;9.10;;;4.60;;
2305;SDS011;1161;51.922;8.896;2022-12-07T12:15:33;10.80;;;4.90;;
2305;SDS011;1161;51.922;8.896;2022-12-07T12:18:10;10.50;;;5.63;;
2305;SDS011;1161;51.922;8.896;2022-12-07T12:20:47;13.33;;;4.80;;
2305;SDS011;1161;51.922;8.896;2022-12-07T12:23:17;7.23;;;4.60;;
2305;SDS011;1161;51.922;8.896;2022-12-07T12:25:46;5.53;;;4.33;;
2305;SDS011;1161;51.922;8.896;2022-12-07T12:28:22;7.50;;;4.73;;
2305;SDS011;1161;51.922;8.896;2022-12-07T12:31:07;14.20;;;4.63;;
2305;SDS011;1161;51.922;8.896;2022-12-07T12:33:36;9.40;;;4.60;;
2305;SDS011;1161;51.922;8.896;2022-12-07T12:36:19;5.83;;;3.97;;
2305;SDS011;1161;51.922;8.896;2022-12-07T12:38:48;13.03;;;4.63;;
2305;SDS011;1161;51.922;8.896;2022-12-07T12:47:53;6.87;;;3.93;;
2305;SDS011;1161;51.922;8.896;2022-12-07T12:50:24;19.50;;;4.77;;
2305;SDS011;1161;51.922;8.896;2022-12-07T12:52:54;14.57;;;5.23;;
2305;SDS011;1161;51.922;8.896;2022-12-07T12:55:49;17.43;;;8.60;;
2305;SDS011;1161;51.922;8.896;2022-12-07T12:58:38;15.43;;;5.67;;
2305;SDS011;1161;51.922;8.896;2022-12-07T13:04:14;7.83;;;4.47;;
2305;SDS011;1161;51.922;8.896;2022-12-07T13:07:01;4.37;;;3.40;;
2305;SDS011;1161;51.922;8.896;2022-12-07T13:09:30;16.83;;;4.43;;
2305;SDS011;1161;51.922;8.896;2022-12-07T13:12:00;3.40;;;3.07;;
2305;SDS011;1161;51.922;8.896;2022-12-07T13:14:38;6.53;;;3.27;;
2305;SDS011;1161;51.922;8.896;2022-12-07T13:17:08;13.07;;;3.63;;
2305;SDS011;1161;51.922;8.896;2022-12-07T13:22:40;6.40;;;2.90;;
2305;SDS011;1161;51.922;8.896;2022-12-07T13:25:12;12.73;;;4.23;;
2305;SDS011;1161;51.922;8.896;2022-12-07T13:27:47;12.83;;;2.93;;
2305;SDS011;1161;51.922;8.896;2022-12-07T13:30:18;5.90;;;4.33;;
2305;SDS011;1161;51.922;8.896;2022-12-07T13:32:51;10.53;;;3.83;;
2305;SDS011;1161;51.922;8.896;2022-12-07T13:35:28;5.17;;;4.10;;
2305;SDS011;1161;51.922;8.896;2022-12-07T13:37:59;4.30;;;3.60;;
2305;SDS011;1161;51.922;8.896;2022-12-07T13:40:30;10.00;;;5.10;;
2305;SDS011;1161;51.922;8.896;2022-12-07T13:42:57;8.73;;;4.23;;
2305;SDS011;1161;51.922;8.896;2022-12-07T13:45:24;5.43;;;3.60;;
2305;SDS011;1161;51.922;8.896;2022-12-07T13:48:14;10.40;;;4.93;;
2305;SDS011;1161;51.922;8.896;2022-12-07T13:50:48;14.67;;;4.13;;
2305;SDS011;1161;51.922;8.896;2022-12-07T13:53:19;16.17;;;5.27;;
2305;SDS011;1161;51.922;8.896;2022-12-07T13:55:47;6.60;;;4.63;;
2305;SDS011;1161;51.922;8.896;2022-12-07T13:58:14;9.93;;;4.47;;
2305;SDS011;1161;51.922;8.896;2022-12-07T14:00:40;12.87;;;3.73;;
2305;SDS011;1161;51.922;8.896;2022-12-07T14:03:22;5.83;;;3.50;;
2305;SDS011;1161;51.922;8.896;2022-12-07T14:06:02;8.90;;;2.80;;
2305;SDS011;1161;51.922;8.896;2022-12-07T14:08:33;7.30;;;2.90;;
2305;SDS011;1161;51.922;8.896;2022-12-07T14:11:01;6.73;;;2.43;;
2305;SDS011;1161;51.922;8.896;2022-12-07T14:13:30;8.10;;;4.47;;
2305;SDS011;1161;51.922;8.896;2022-12-07T14:16:00;3.93;;;2.60;;
2305;SDS011;1161;51.922;8.896;2022-12-07T14:18:27;19.73;;;4.83;;
2305;SDS011;1161;51.922;8.896;2022-12-07T14:21:04;8.70;;;2.43;;
2305;SDS011;1161;51.922;8.896;2022-12-07T14:23:31;2.63;;;2.40;;
2305;SDS011;1161;51.922;8.896;2022-12-07T14:26:06;8.10;;;2.43;;
2305;SDS011;1161;51.922;8.896;2022-12-07T14:28:34;4.60;;;4.17;;
2305;SDS011;1161;51.922;8.896;2022-12-07T14:31:03;2.20;;;2.00;;
2305;SDS011;1161;51.922;8.896;2022-12-07T14:33:31;5.20;;;2.57;;
2305;SDS011;1161;51.922;8.896;2022-12-07T14:35:57;9.53;;;3.90;;
2305;SDS011;1161;51.922;8.896;2022-12-07T14:38:24;7.10;;;3.47;;
2305;SDS011;1161;51.922;8.896;2022-12-07T14:40:51;11.00;;;5.33;;
2305;SDS011;1161;51.922;8.896;2022-12-07T14:43:20;16.70;;;4.77;;
2305;SDS011;1161;51.922;8.896;2022-12-07T14:45:47;6.63;;;3.17;;
2305;SDS011;1161;51.922;8.896;2022-12-07T14:48:14;9.40;;;5.50;;
2305;SDS011;1161;51.922;8.896;2022-12-07T14:50:42;8.83;;;5.10;;
2305;SDS011;1161;51.922;8.896;2022-12-07T14:53:11;4.53;;;3.87;;
2305;SDS011;1161;51.922;8.896;2022-12-07T14:55:40;8.40;;;4.30;;
2305;SDS011;1161;51.922;8.896;2022-12-07T14:58:08;6.77;;;4.10;;
2305;SDS011;1161;51.922;8.896;2022-12-07T15:00:39;18.30;;;5.43;;
2305;SDS011;1161;51.922;8.896;2022-12-07T15:03:07;8.50;;;5.07;;
2305;SDS011;1161;51.922;8.896;2022-12-07T15:05:33;12.73;;;6.50;;
2305;SDS011;1161;51.922;8.896;2022-12-07T15:08:01;9.57;;;5.30;;
2305;SDS011;1161;51.922;8.896;2022-12-07T15:10:28;31.00;;;13.67;;
2305;SDS011;1161;51.922;8.896;2022-12-07T15:12:57;17.60;;;6.30;;
2305;SDS011;1161;51.922;8.896;2022-12-07T15:15:46;10.80;;;7.33;;
2305;SDS011;1161;51.922;8.896;2022-12-07T15:18:13;32.33;;;12.20;;
2305;SDS011;1161;51.922;8.896;2022-12-07T15:20:39;22.33;;;7.27;;
2305;SDS011;1161;51.922;8.896;2022-12-07T15:23:07;21.23;;;5.73;;
2305;SDS011;1161;51.922;8.896;2022-12-07T15:25:33;17.13;;;7.90;;
2305;SDS011;1161;51.922;8.896;2022-12-07T15:28:00;9.67;;;5.67;;
2305;SDS011;1161;51.922;8.896;2022-12-07T15:30:27;16.50;;;5.87;;
2305;SDS011;1161;51.922;8.896;2022-12-07T15:32:56;6.90;;;4.83;;
2305;SDS011;1161;51.922;8.896;2022-12-07T15:35:23;10.67;;;4.93;;